createdAt,value
2023-02-02T00:00:34.216Z,7.60
2023-02-02T00:01:34.196Z,7.60
2023-02-02T00:02:34.262Z,7.60
2023-02-02T00:03:34.235Z,7.61
2023-02-02T00:04:34.161Z,7.63
2023-02-02T00:05:34.143Z,7.64
2023-02-02T00:06:34.156Z,7.70
2023-02-02T00:07:34.120Z,7.74
2023-02-02T00:08:34.107Z,7.82
2023-02-02T00:09:34.111Z,7.85
2023-02-02T00:10:34.096Z,7.85
2023-02-02T00:11:34.066Z,7.86
2023-02-02T00:12:34.062Z,7.94
2023-02-02T00:13:34.043Z,7.89
2023-02-02T00:14:34.031Z,7.92
2023-02-02T00:15:34.038Z,8.00
2023-02-02T00:16:34.176Z,7.96
2023-02-02T00:17:33.990Z,7.99
2023-02-02T00:18:33.978Z,8.01
2023-02-02T00:19:33.970Z,8.01
2023-02-02T00:20:33.949Z,8.00
2023-02-02T00:21:33.946Z,8.03
2023-02-02T00:22:33.925Z,8.04
2023-02-02T00:23:33.910Z,8.07
2023-02-02T00:24:33.898Z,8.04
2023-02-02T00:25:33.887Z,8.01
2023-02-02T00:26:33.916Z,8.04
2023-02-02T00:27:33.866Z,8.07
2023-02-02T00:28:33.850Z,8.09
2023-02-02T00:29:33.858Z,8.06
2023-02-02T00:30:33.871Z,8.06
2023-02-02T00:31:34.015Z,8.06
2023-02-02T00:32:33.795Z,8.03
2023-02-02T00:33:33.783Z,8.07
2023-02-02T00:34:33.779Z,8.09
2023-02-02T00:35:33.770Z,8.09
2023-02-02T00:36:33.751Z,8.07
2023-02-02T00:37:33.733Z,8.06
2023-02-02T00:38:33.717Z,8.10
2023-02-02T00:39:33.708Z,8.03
2023-02-02T00:40:33.691Z,8.06
2023-02-02T00:41:33.684Z,8.07
2023-02-02T00:42:33.677Z,8.01
2023-02-02T00:43:33.656Z,8.04
2023-02-02T00:44:33.641Z,8.09
2023-02-02T00:45:33.689Z,8.06
2023-02-02T00:46:33.622Z,8.04
2023-02-02T00:47:33.631Z,8.06
2023-02-02T00:48:33.592Z,8.07
2023-02-02T00:49:33.582Z,8.06
2023-02-02T00:50:33.566Z,8.09
2023-02-02T00:51:33.555Z,8.04
2023-02-02T00:52:33.554Z,8.07
2023-02-02T00:53:33.527Z,8.04
2023-02-02T00:54:33.523Z,8.09
2023-02-02T00:55:33.507Z,8.03
2023-02-02T00:56:33.504Z,8.01
2023-02-02T00:57:33.477Z,8.07
2023-02-02T00:58:33.463Z,8.03
2023-02-02T00:59:33.461Z,8.00
2023-02-02T01:00:33.438Z,7.96
2023-02-02T01:01:33.425Z,7.91
2023-02-02T01:02:33.433Z,7.97
2023-02-02T01:03:33.428Z,7.99
2023-02-02T01:04:33.386Z,7.99
2023-02-02T01:05:33.374Z,8.01
2023-02-02T01:06:33.361Z,8.07
2023-02-02T01:07:33.356Z,8.04
2023-02-02T01:08:33.334Z,8.07
2023-02-02T01:09:33.329Z,8.11
2023-02-02T01:10:33.308Z,8.11
2023-02-02T01:11:33.297Z,8.14
2023-02-02T01:12:33.302Z,8.15
2023-02-02T01:13:33.272Z,8.15
2023-02-02T01:14:33.256Z,8.18
2023-02-02T01:15:33.250Z,8.18
2023-02-02T01:16:33.315Z,8.18
2023-02-02T01:17:33.223Z,8.22
2023-02-02T01:18:33.204Z,8.25
2023-02-02T01:19:33.216Z,8.21
2023-02-02T01:20:33.178Z,8.28
2023-02-02T01:21:33.168Z,8.27
2023-02-02T01:22:33.152Z,8.24
2023-02-02T01:23:33.154Z,8.27
2023-02-02T01:24:33.125Z,8.27
2023-02-02T01:25:33.127Z,8.29
2023-02-02T01:26:33.148Z,8.29
2023-02-02T01:27:33.088Z,8.33
2023-02-02T01:28:33.077Z,8.32
2023-02-02T01:29:33.066Z,8.33
2023-02-02T01:30:33.048Z,8.33
2023-02-02T01:31:33.091Z,8.29
2023-02-02T01:32:33.023Z,8.33
2023-02-02T01:33:33.012Z,8.37
2023-02-02T01:34:33.002Z,8.35
2023-02-02T01:35:33.011Z,8.32
2023-02-02T01:36:32.973Z,8.25
2023-02-02T01:37:32.962Z,8.32
2023-02-02T01:38:32.956Z,8.27
2023-02-02T01:39:34.299Z,8.29
2023-02-02T01:40:32.921Z,8.33
2023-02-02T01:41:32.910Z,8.32
2023-02-02T01:42:32.908Z,8.29
2023-02-02T01:43:32.892Z,8.33
2023-02-02T01:44:32.871Z,8.33
2023-02-02T01:45:32.934Z,8.33
2023-02-02T01:46:32.863Z,8.35
2023-02-02T01:47:32.842Z,8.32
2023-02-02T01:48:32.832Z,8.38
2023-02-02T01:49:32.814Z,8.43
2023-02-02T01:50:32.795Z,8.44
2023-02-02T01:51:32.807Z,8.44
2023-02-02T01:52:32.769Z,8.41
2023-02-02T01:53:32.763Z,8.37
2023-02-02T01:54:32.744Z,8.37
2023-02-02T01:55:32.735Z,8.37
2023-02-02T01:56:32.716Z,8.35
2023-02-02T01:57:32.706Z,8.38
2023-02-02T01:58:32.692Z,8.41
2023-02-02T01:59:32.682Z,8.43
2023-02-02T02:00:32.667Z,8.41
2023-02-02T02:01:32.737Z,8.44
2023-02-02T02:02:32.700Z,8.44
2023-02-02T02:03:32.630Z,8.29
2023-02-02T02:04:32.620Z,8.24
2023-02-02T02:05:32.608Z,8.19
2023-02-02T02:06:32.597Z,8.17
2023-02-02T02:07:32.603Z,8.14
2023-02-02T02:08:32.571Z,8.00
2023-02-02T02:09:32.553Z,7.94
2023-02-02T02:10:32.537Z,7.89
2023-02-02T02:11:32.526Z,7.85
2023-02-02T02:12:32.514Z,7.89
2023-02-02T02:13:32.501Z,7.79
2023-02-02T02:14:32.489Z,7.78
2023-02-02T02:15:32.501Z,7.78
2023-02-02T02:16:32.502Z,7.73
2023-02-02T02:17:32.450Z,7.71
2023-02-02T02:18:32.437Z,7.63
2023-02-02T02:19:32.426Z,7.61
2023-02-02T02:20:32.410Z,7.61
2023-02-02T02:21:32.403Z,7.63
2023-02-02T02:22:32.392Z,7.61
2023-02-02T02:23:32.395Z,7.61
2023-02-02T02:24:32.365Z,7.63
2023-02-02T02:25:32.350Z,7.55
2023-02-02T02:26:32.373Z,7.49
2023-02-02T02:27:32.321Z,7.49
2023-02-02T02:28:32.307Z,7.48
2023-02-02T02:29:32.296Z,7.45
2023-02-02T02:30:32.318Z,7.45
2023-02-02T02:31:32.453Z,7.49
2023-02-02T02:32:32.258Z,7.49
2023-02-02T02:33:32.250Z,7.49
2023-02-02T02:34:32.230Z,7.48
2023-02-02T02:35:32.226Z,7.46
2023-02-02T02:36:32.206Z,7.46
2023-02-02T02:37:32.193Z,7.39
2023-02-02T02:38:32.178Z,7.40
2023-02-02T02:39:32.193Z,7.35
2023-02-02T02:40:32.152Z,7.39
2023-02-02T02:41:32.149Z,7.42
2023-02-02T02:42:32.128Z,7.46
2023-02-02T02:43:32.114Z,7.49
2023-02-02T02:44:32.103Z,7.43
2023-02-02T02:45:32.091Z,7.45
2023-02-02T02:46:32.109Z,7.40
2023-02-02T02:47:32.072Z,7.40
2023-02-02T02:48:32.063Z,7.42
2023-02-02T02:49:32.041Z,7.43
2023-02-02T02:50:32.029Z,7.37
2023-02-02T02:51:32.015Z,7.37
2023-02-02T02:52:31.998Z,7.35
2023-02-02T02:53:31.991Z,7.40
2023-02-02T02:54:31.975Z,7.37
2023-02-02T02:55:31.986Z,7.45
2023-02-02T02:56:31.949Z,7.46
2023-02-02T02:57:31.933Z,7.49
2023-02-02T02:58:31.921Z,7.49
2023-02-02T02:59:31.910Z,7.49
2023-02-02T03:00:31.899Z,7.52
2023-02-02T03:01:31.958Z,7.50
2023-02-02T03:02:31.949Z,7.48
2023-02-02T03:03:31.859Z,7.48
2023-02-02T03:04:31.853Z,7.48
2023-02-02T03:05:31.832Z,7.48
2023-02-02T03:06:31.819Z,7.46
2023-02-02T03:07:31.812Z,7.49
2023-02-02T03:08:31.797Z,7.53
2023-02-02T03:09:31.781Z,7.50
2023-02-02T03:10:31.766Z,7.45
2023-02-02T03:11:31.782Z,7.42
2023-02-02T03:12:31.763Z,7.46
2023-02-02T03:13:31.729Z,7.46
2023-02-02T03:14:31.715Z,7.45
2023-02-02T03:15:31.764Z,7.42
2023-02-02T03:16:31.695Z,7.45
2023-02-02T03:17:31.684Z,7.45
2023-02-02T03:18:31.664Z,7.46
2023-02-02T03:19:31.678Z,7.42
2023-02-02T03:20:31.637Z,7.48
2023-02-02T03:21:31.628Z,7.46
2023-02-02T03:22:31.613Z,7.45
2023-02-02T03:23:31.599Z,7.49
2023-02-02T03:24:31.587Z,7.48
2023-02-02T03:25:31.577Z,7.48
2023-02-02T03:26:31.589Z,7.48
2023-02-02T03:27:31.573Z,7.48
2023-02-02T03:28:31.534Z,7.43
2023-02-02T03:29:31.523Z,7.49
2023-02-02T03:30:31.529Z,7.52
2023-02-02T03:31:31.718Z,7.53
2023-02-02T03:32:31.483Z,7.55
2023-02-02T03:33:31.471Z,7.55
2023-02-02T03:34:31.457Z,7.52
2023-02-02T03:35:31.445Z,7.49
2023-02-02T03:36:31.439Z,7.52
2023-02-02T03:37:31.424Z,7.52
2023-02-02T03:38:31.408Z,7.48
2023-02-02T03:39:31.394Z,7.55
2023-02-02T03:40:31.381Z,7.53
2023-02-02T03:41:31.369Z,7.55
2023-02-02T03:42:31.354Z,7.60
2023-02-02T03:43:31.365Z,7.58
2023-02-02T03:44:31.328Z,7.53
2023-02-02T03:45:31.316Z,7.57
2023-02-02T03:46:31.346Z,7.58
2023-02-02T03:47:31.306Z,7.60
2023-02-02T03:48:31.291Z,7.58
2023-02-02T03:49:31.265Z,7.60
2023-02-02T03:50:31.250Z,7.63
2023-02-02T03:51:31.250Z,7.63
2023-02-02T03:52:31.241Z,7.66
2023-02-02T03:53:31.213Z,7.64
2023-02-02T03:54:31.199Z,7.61
2023-02-02T03:55:31.191Z,7.58
2023-02-02T03:56:31.174Z,7.64
2023-02-02T03:57:31.167Z,7.63
2023-02-02T03:58:31.150Z,7.61
2023-02-02T03:59:31.163Z,7.64
2023-02-02T04:01:31.123Z,7.60
2023-02-02T04:02:31.109Z,7.63
2023-02-02T04:03:31.087Z,7.64
2023-02-02T04:04:31.071Z,7.66
2023-02-02T04:05:31.063Z,7.63
2023-02-02T04:06:31.044Z,7.64
2023-02-02T04:07:31.034Z,7.70
2023-02-02T04:08:31.018Z,7.66
2023-02-02T04:09:31.008Z,7.63
2023-02-02T04:10:30.993Z,7.64
2023-02-02T04:11:30.982Z,7.66
2023-02-02T04:12:30.966Z,7.70
2023-02-02T04:13:30.958Z,7.64
2023-02-02T04:14:30.949Z,7.66
2023-02-02T04:15:30.954Z,7.67
2023-02-02T04:16:30.982Z,7.64
2023-02-02T04:17:30.906Z,7.68
2023-02-02T04:18:30.894Z,7.67
2023-02-02T04:19:30.892Z,7.61
2023-02-02T04:20:30.871Z,7.66
2023-02-02T04:21:30.857Z,7.67
2023-02-02T04:22:30.838Z,7.64
2023-02-02T04:23:30.832Z,7.61
2023-02-02T04:24:30.815Z,7.64
2023-02-02T04:25:30.804Z,7.61
2023-02-02T04:26:30.850Z,7.68
2023-02-02T04:27:30.775Z,7.64
2023-02-02T04:28:30.767Z,7.66
2023-02-02T04:29:30.754Z,7.58
2023-02-02T04:30:30.779Z,7.61
2023-02-02T04:31:30.818Z,7.58
2023-02-02T04:32:30.715Z,7.57
2023-02-02T04:33:30.702Z,7.52
2023-02-02T04:34:30.688Z,7.53
2023-02-02T04:35:30.675Z,7.60
2023-02-02T04:36:30.658Z,7.60
2023-02-02T04:37:30.651Z,7.63
2023-02-02T04:38:30.661Z,7.57
2023-02-02T04:39:30.620Z,7.57
2023-02-02T04:40:30.619Z,7.60
2023-02-02T04:41:30.612Z,7.61
2023-02-02T04:42:30.582Z,7.61
2023-02-02T04:43:30.568Z,7.57
2023-02-02T04:44:30.572Z,7.57
2023-02-02T04:45:30.690Z,7.57
2023-02-02T04:46:30.531Z,7.58
2023-02-02T04:47:30.540Z,7.58
2023-02-02T04:48:30.508Z,7.55
2023-02-02T04:49:30.540Z,7.52
2023-02-02T04:50:30.484Z,7.57
2023-02-02T04:51:30.468Z,7.58
2023-02-02T04:52:30.467Z,7.52
2023-02-02T04:53:30.444Z,7.52
2023-02-02T04:54:30.431Z,7.50
2023-02-02T04:55:30.415Z,7.49
2023-02-02T04:56:30.401Z,7.52
2023-02-02T04:57:30.388Z,7.48
2023-02-02T04:58:30.378Z,7.43
2023-02-02T04:59:30.379Z,7.43
2023-02-02T05:00:30.351Z,7.40
2023-02-02T05:01:30.336Z,7.40
2023-02-02T05:02:30.327Z,7.43
2023-02-02T05:03:30.340Z,7.39
2023-02-02T05:04:30.314Z,7.42
2023-02-02T05:05:30.282Z,7.39
2023-02-02T05:06:30.282Z,7.37
2023-02-02T05:07:30.257Z,7.37
2023-02-02T05:08:30.248Z,7.43
2023-02-02T05:09:30.232Z,7.39
2023-02-02T05:10:30.235Z,7.28
2023-02-02T05:11:30.209Z,7.28
2023-02-02T05:12:30.201Z,7.31
2023-02-02T05:13:30.184Z,7.34
2023-02-02T05:14:30.179Z,7.32
2023-02-02T05:15:30.154Z,7.42
2023-02-02T05:16:30.190Z,7.42
2023-02-02T05:17:30.136Z,7.40
2023-02-02T05:18:30.118Z,7.42
2023-02-02T05:19:30.129Z,7.45
2023-02-02T05:20:30.099Z,7.45
2023-02-02T05:21:30.086Z,7.43
2023-02-02T05:22:30.066Z,7.42
2023-02-02T05:23:30.052Z,7.43
2023-02-02T05:24:30.047Z,7.45
2023-02-02T05:25:30.030Z,7.46
2023-02-02T05:26:30.077Z,7.48
2023-02-02T05:27:30.001Z,7.46
2023-02-02T05:28:29.988Z,7.50
2023-02-02T05:29:29.983Z,7.50
2023-02-02T05:30:30.853Z,7.48
2023-02-02T05:31:30.001Z,7.48
2023-02-02T05:32:29.941Z,7.48
2023-02-02T05:33:29.933Z,7.45
2023-02-02T05:34:29.918Z,7.48
2023-02-02T05:35:29.924Z,7.49
2023-02-02T05:36:29.903Z,7.49
2023-02-02T05:37:29.874Z,7.46
2023-02-02T05:38:29.863Z,7.46
2023-02-02T05:39:29.848Z,7.42
2023-02-02T05:40:29.837Z,7.46
2023-02-02T05:41:29.823Z,7.46
2023-02-02T05:42:29.809Z,7.48
2023-02-02T05:43:29.797Z,7.45
2023-02-02T05:44:29.786Z,7.43
2023-02-02T05:45:29.770Z,7.48
2023-02-02T05:46:29.767Z,7.43
2023-02-02T05:47:29.743Z,7.40
2023-02-02T05:48:29.738Z,7.45
2023-02-02T05:49:29.718Z,7.46
2023-02-02T05:50:29.724Z,7.46
2023-02-02T05:51:29.721Z,7.50
2023-02-02T05:52:29.680Z,7.45
2023-02-02T05:53:29.666Z,7.43
2023-02-02T05:54:29.655Z,7.40
2023-02-02T05:55:29.641Z,7.45
2023-02-02T05:56:29.628Z,7.45
2023-02-02T05:57:29.616Z,7.45
2023-02-02T05:58:29.607Z,7.43
2023-02-02T05:59:29.588Z,7.40
2023-02-02T06:00:29.577Z,7.37
2023-02-02T06:01:29.565Z,7.42
2023-02-02T06:02:29.551Z,7.43
2023-02-02T06:03:29.694Z,7.42
2023-02-02T06:04:29.526Z,7.39
2023-02-02T06:05:29.511Z,7.34
2023-02-02T06:06:29.505Z,7.34
2023-02-02T06:07:29.512Z,7.35
2023-02-02T06:08:29.475Z,7.35
2023-02-02T06:09:29.461Z,7.43
2023-02-02T06:10:29.449Z,7.50
2023-02-02T06:11:29.438Z,7.45
2023-02-02T06:12:29.432Z,7.42
2023-02-02T06:13:29.412Z,7.45
2023-02-02T06:14:29.397Z,7.45
2023-02-02T06:15:29.496Z,7.48
2023-02-02T06:16:29.377Z,7.48
2023-02-02T06:17:29.363Z,7.43
2023-02-02T06:18:29.348Z,7.46
2023-02-02T06:19:29.335Z,7.40
2023-02-02T06:20:29.322Z,7.40
2023-02-02T06:21:29.306Z,7.46
2023-02-02T06:22:29.292Z,7.45
2023-02-02T06:23:29.300Z,7.46
2023-02-02T06:24:29.275Z,7.43
2023-02-02T06:25:29.252Z,7.42
2023-02-02T06:26:29.355Z,7.46
2023-02-02T06:27:29.225Z,7.46
2023-02-02T06:28:31.006Z,7.42
2023-02-02T06:29:29.199Z,7.40
2023-02-02T06:30:29.218Z,7.40
2023-02-02T06:31:29.336Z,7.42
2023-02-02T06:32:29.162Z,7.43
2023-02-02T06:33:29.153Z,7.45
2023-02-02T06:34:29.141Z,7.49
2023-02-02T06:35:29.132Z,7.48
2023-02-02T06:36:29.110Z,7.45
2023-02-02T06:37:30.769Z,7.42
2023-02-02T06:38:29.086Z,7.40
2023-02-02T06:39:29.095Z,7.39
2023-02-02T06:40:29.062Z,7.43
2023-02-02T06:41:29.049Z,7.50
2023-02-02T06:42:29.037Z,7.50
2023-02-02T06:43:29.019Z,7.52
2023-02-02T06:44:29.019Z,7.55
2023-02-02T06:45:29.012Z,7.52
2023-02-02T06:46:29.071Z,7.49
2023-02-02T06:47:28.973Z,7.53
2023-02-02T06:48:28.958Z,7.52
2023-02-02T06:49:28.948Z,7.58
2023-02-02T06:50:28.938Z,7.50
2023-02-02T06:51:28.924Z,7.53
2023-02-02T06:52:28.917Z,7.57
2023-02-02T06:53:28.904Z,7.53
2023-02-02T06:54:28.877Z,7.57
2023-02-02T06:55:28.886Z,7.55
2023-02-02T06:56:28.861Z,7.61
2023-02-02T06:57:28.839Z,7.60
2023-02-02T06:58:28.831Z,7.55
2023-02-02T06:59:28.818Z,7.58
2023-02-02T07:00:28.807Z,7.63
2023-02-02T07:01:28.806Z,7.63
2023-02-02T07:02:28.897Z,7.63
2023-02-02T07:03:28.781Z,7.63
2023-02-02T07:04:28.761Z,7.70
2023-02-02T07:05:30.737Z,7.63
2023-02-02T07:06:28.724Z,7.64
2023-02-02T07:07:28.709Z,7.66
2023-02-02T07:08:28.699Z,7.67
2023-02-02T07:09:28.688Z,7.66
2023-02-02T07:11:12.481Z,7.68
2023-02-02T07:11:28.683Z,7.67
2023-02-02T07:12:28.655Z,7.66
2023-02-02T07:13:28.634Z,7.60
2023-02-02T07:14:34.628Z,7.63
2023-02-02T07:15:28.616Z,7.60
2023-02-02T07:16:28.596Z,7.61
2023-02-02T07:17:28.580Z,7.58
2023-02-02T07:18:28.575Z,7.60
2023-02-02T07:19:28.559Z,7.55
2023-02-02T07:20:28.597Z,7.67
2023-02-02T07:21:28.528Z,7.68
2023-02-02T07:22:28.523Z,7.68
2023-02-02T07:23:28.504Z,7.66
2023-02-02T07:24:28.497Z,7.70
2023-02-02T07:25:28.489Z,7.70
2023-02-02T07:26:28.484Z,7.63
2023-02-02T07:27:28.479Z,7.66
2023-02-02T07:28:28.457Z,7.70
2023-02-02T07:29:28.431Z,7.68
2023-02-02T07:31:28.438Z,7.67
2023-02-02T07:32:28.397Z,7.71
2023-02-02T07:33:28.375Z,7.71
2023-02-02T07:34:28.366Z,7.71
2023-02-02T07:35:28.351Z,7.76
2023-02-02T07:36:28.339Z,7.76
2023-02-02T07:37:28.324Z,7.64
2023-02-02T07:38:28.318Z,7.68
2023-02-02T07:39:28.300Z,7.67
2023-02-02T07:40:28.326Z,7.70
2023-02-02T07:41:28.275Z,7.67
2023-02-02T07:42:28.263Z,7.73
2023-02-02T07:43:28.274Z,7.67
2023-02-02T07:44:28.240Z,7.64
2023-02-02T07:45:28.387Z,7.63
2023-02-02T07:46:28.251Z,7.63
2023-02-02T07:47:28.199Z,7.60
2023-02-02T07:48:28.185Z,7.63
2023-02-02T07:49:28.176Z,7.64
2023-02-02T07:50:28.293Z,7.66
2023-02-02T07:51:28.146Z,7.61
2023-02-02T07:52:28.136Z,7.64
2023-02-02T07:53:28.132Z,7.64
2023-02-02T07:54:28.112Z,7.68
2023-02-02T07:55:28.552Z,7.70
2023-02-02T07:56:28.084Z,7.74
2023-02-02T07:57:28.079Z,7.70
2023-02-02T07:58:28.063Z,7.66
2023-02-02T07:59:28.080Z,7.70
2023-02-02T08:00:28.198Z,7.71
2023-02-02T08:01:28.059Z,7.71
2023-02-02T08:02:28.087Z,7.64
2023-02-02T08:03:27.997Z,7.64
2023-02-02T08:04:27.984Z,7.66
2023-02-02T08:05:28.217Z,7.64
2023-02-02T08:06:27.959Z,7.63
2023-02-02T08:07:27.941Z,7.64
2023-02-02T08:08:27.937Z,7.61
2023-02-02T08:09:27.914Z,7.66
2023-02-02T08:10:27.903Z,7.63
2023-02-02T08:11:27.896Z,7.60
2023-02-02T08:12:27.879Z,7.66
2023-02-02T08:13:27.865Z,7.66
2023-02-02T08:14:27.853Z,7.63
2023-02-02T08:15:28.205Z,7.64
2023-02-02T08:16:27.889Z,7.60
2023-02-02T08:17:27.813Z,7.63
2023-02-02T08:18:27.813Z,7.61
2023-02-02T08:19:27.792Z,7.63
2023-02-02T08:20:27.777Z,7.64
2023-02-02T08:21:27.763Z,7.71
2023-02-02T08:22:27.756Z,7.70
2023-02-02T08:23:27.766Z,7.71
2023-02-02T08:24:27.728Z,7.70
2023-02-02T08:25:27.883Z,7.67
2023-02-02T08:26:27.808Z,7.68
2023-02-02T08:27:27.687Z,7.68
2023-02-02T08:28:27.681Z,7.68
2023-02-02T08:29:27.661Z,7.68
2023-02-02T08:30:27.716Z,7.67
2023-02-02T08:31:27.739Z,7.64
2023-02-02T08:32:27.627Z,7.67
2023-02-02T08:33:27.613Z,7.67
2023-02-02T08:34:27.600Z,7.68
2023-02-02T08:35:27.586Z,7.71
2023-02-02T08:36:27.573Z,7.67
2023-02-02T08:37:27.559Z,7.70
2023-02-02T08:38:27.548Z,7.64
2023-02-02T08:39:27.535Z,7.67
2023-02-02T08:40:27.576Z,7.64
2023-02-02T08:41:27.538Z,7.67
2023-02-02T08:42:27.499Z,7.63
2023-02-02T08:43:27.482Z,7.63
2023-02-02T08:44:28.463Z,7.66
2023-02-02T08:46:03.435Z,7.66
2023-02-02T08:46:27.602Z,7.58
2023-02-02T08:47:27.456Z,7.66
2023-02-02T08:48:27.421Z,7.66
2023-02-02T08:49:27.408Z,7.66
2023-02-02T08:50:27.393Z,7.66
2023-02-02T08:51:27.382Z,7.66
2023-02-02T08:52:27.368Z,7.73
2023-02-02T08:53:27.356Z,7.79
2023-02-02T08:54:27.342Z,7.74
2023-02-02T08:55:27.328Z,7.78
2023-02-02T08:56:27.314Z,7.74
2023-02-02T08:57:27.311Z,7.79
2023-02-02T08:58:27.301Z,7.81
2023-02-02T08:59:27.277Z,7.76
2023-02-02T09:00:27.274Z,7.81
2023-02-02T09:01:27.295Z,7.79
2023-02-02T09:02:27.296Z,7.76
2023-02-02T09:03:27.250Z,7.76
2023-02-02T09:04:27.218Z,7.76
2023-02-02T09:05:27.583Z,7.82
2023-02-02T09:06:27.190Z,7.82
2023-02-02T09:07:27.179Z,7.84
2023-02-02T09:08:27.234Z,7.79
2023-02-02T09:09:27.165Z,7.81
2023-02-02T09:10:27.136Z,7.84
2023-02-02T09:11:27.134Z,7.82
2023-02-02T09:12:27.111Z,7.74
2023-02-02T09:13:27.104Z,7.81
2023-02-02T09:14:27.089Z,7.85
2023-02-02T09:15:27.129Z,7.82
2023-02-02T09:16:27.203Z,7.81
2023-02-02T09:17:27.050Z,7.79
2023-02-02T09:18:27.038Z,7.86
2023-02-02T09:19:27.052Z,7.85
2023-02-02T09:20:27.009Z,7.85
2023-02-02T09:21:27.001Z,7.78
2023-02-02T09:22:28.819Z,7.76
2023-02-02T09:23:26.993Z,7.78
2023-02-02T09:24:26.959Z,7.73
2023-02-02T09:25:27.306Z,7.76
2023-02-02T09:26:27.138Z,7.85
2023-02-02T09:27:26.926Z,7.84
2023-02-02T09:28:26.917Z,7.85
2023-02-02T09:29:26.897Z,7.91
2023-02-02T09:30:26.885Z,7.94
2023-02-02T09:31:27.086Z,7.89
2023-02-02T09:32:26.863Z,7.91
2023-02-02T09:33:26.851Z,7.88
2023-02-02T09:34:26.838Z,7.85
2023-02-02T09:35:27.373Z,7.86
2023-02-02T09:36:27.011Z,7.84
2023-02-02T09:37:26.819Z,7.85
2023-02-02T09:38:26.787Z,7.94
2023-02-02T09:39:26.776Z,7.94
2023-02-02T09:40:26.762Z,7.94
2023-02-02T09:41:26.751Z,7.91
2023-02-02T09:42:26.737Z,7.92
2023-02-02T09:43:26.733Z,7.99
2023-02-02T09:44:26.711Z,8.09
2023-02-02T09:45:27.104Z,8.01
2023-02-02T09:46:26.708Z,8.04
2023-02-02T09:47:26.676Z,8.07
2023-02-02T09:48:26.657Z,8.09
2023-02-02T09:49:26.646Z,8.17
2023-02-02T09:50:26.633Z,8.10
2023-02-02T09:51:26.645Z,8.09
2023-02-02T09:52:26.606Z,8.18
2023-02-02T09:53:26.594Z,8.19
2023-02-02T09:54:26.579Z,8.27
2023-02-02T09:55:26.833Z,8.29
2023-02-02T09:56:26.558Z,8.24
2023-02-02T09:57:26.547Z,8.19
2023-02-02T09:58:26.529Z,8.14
2023-02-02T09:59:26.518Z,8.17
2023-02-02T10:00:26.508Z,8.15
2023-02-02T10:01:26.576Z,8.14
2023-02-02T10:02:26.474Z,8.17
2023-02-02T10:04:26.451Z,8.14
2023-02-02T10:05:26.781Z,8.19
2023-02-02T10:06:26.429Z,8.19
2023-02-02T10:07:26.446Z,8.19
2023-02-02T10:08:34.797Z,8.10
2023-02-02T10:09:28.388Z,8.24
2023-02-02T10:10:26.375Z,8.24
2023-02-02T10:11:26.365Z,8.28
2023-02-02T10:12:26.350Z,8.24
2023-02-02T10:13:26.339Z,8.14
2023-02-02T10:14:26.386Z,8.27
2023-02-02T10:15:26.691Z,8.22
2023-02-02T10:16:26.303Z,8.29
2023-02-02T10:17:26.288Z,8.32
2023-02-02T10:18:26.281Z,8.35
2023-02-02T10:19:26.263Z,8.33
2023-02-02T10:20:26.693Z,8.27
2023-02-02T10:21:26.244Z,8.22
2023-02-02T10:22:26.223Z,8.21
2023-02-02T10:23:26.242Z,8.29
2023-02-02T10:24:26.200Z,8.22
2023-02-02T10:25:26.192Z,8.25
2023-02-02T10:26:26.197Z,8.25
2023-02-02T10:27:26.167Z,8.25
2023-02-02T10:28:26.150Z,8.18
2023-02-02T10:29:26.180Z,8.18
2023-02-02T10:30:26.367Z,8.19
2023-02-02T10:31:26.256Z,8.18
2023-02-02T10:32:26.124Z,8.14
2023-02-02T10:33:26.090Z,8.15
2023-02-02T10:34:26.075Z,8.24
2023-02-02T10:35:26.064Z,8.21
2023-02-02T10:36:26.050Z,8.21
2023-02-02T10:37:26.072Z,8.24
2023-02-02T10:38:26.025Z,8.27
2023-02-02T10:39:26.038Z,8.28
2023-02-02T10:40:26.341Z,8.21
2023-02-02T10:41:25.989Z,8.19
2023-02-02T10:42:25.979Z,8.24
2023-02-02T10:43:25.974Z,8.17
2023-02-02T10:44:25.983Z,8.25
2023-02-02T10:45:25.939Z,8.32
2023-02-02T10:46:26.027Z,8.24
2023-02-02T10:47:25.916Z,8.19
2023-02-02T10:48:25.904Z,8.21
2023-02-02T10:49:25.898Z,8.22
2023-02-02T10:50:26.300Z,8.19
2023-02-02T10:51:25.864Z,8.25
2023-02-02T10:52:25.852Z,8.27
2023-02-02T10:53:25.846Z,8.25
2023-02-02T10:54:25.830Z,8.17
2023-02-02T10:55:25.842Z,8.17
2023-02-02T10:56:25.802Z,8.19
2023-02-02T10:57:25.791Z,8.18
2023-02-02T10:58:25.777Z,8.21
2023-02-02T10:59:25.789Z,8.21
2023-02-02T11:00:26.167Z,8.25
2023-02-02T11:01:25.781Z,8.15
2023-02-02T11:02:25.745Z,8.14
2023-02-02T11:03:25.718Z,8.17
2023-02-02T11:04:25.706Z,8.21
2023-02-02T11:05:25.706Z,8.22
2023-02-02T11:06:25.676Z,8.24
2023-02-02T11:07:25.670Z,8.18
2023-02-02T11:08:25.650Z,8.14
2023-02-02T11:09:25.638Z,8.22
2023-02-02T11:10:25.915Z,8.24
2023-02-02T11:11:25.639Z,8.22
2023-02-02T11:12:25.604Z,8.27
2023-02-02T11:13:25.589Z,8.32
2023-02-02T11:14:25.576Z,8.28
2023-02-02T11:15:25.597Z,8.24
2023-02-02T11:16:28.447Z,8.19
2023-02-02T11:17:27.568Z,8.24
2023-02-02T11:18:25.527Z,8.28
2023-02-02T11:19:25.527Z,8.33
2023-02-02T11:20:25.828Z,8.32
2023-02-02T11:21:25.491Z,8.29
2023-02-02T11:22:25.478Z,8.37
2023-02-02T11:23:25.462Z,8.29
2023-02-02T11:24:25.459Z,8.37
2023-02-02T11:25:25.435Z,8.38
2023-02-02T11:26:25.512Z,8.37
2023-02-02T11:27:25.441Z,8.43
2023-02-02T11:28:25.399Z,8.52
2023-02-02T11:29:25.396Z,8.53
2023-02-02T11:30:25.715Z,8.56
2023-02-02T11:31:25.440Z,8.56
2023-02-02T11:32:25.382Z,8.56
2023-02-02T11:33:25.342Z,8.58
2023-02-02T11:34:25.322Z,8.52
2023-02-02T11:35:25.322Z,8.47
2023-02-02T11:36:25.295Z,8.47
2023-02-02T11:37:25.291Z,8.45
2023-02-02T11:38:25.269Z,8.48
2023-02-02T11:39:25.257Z,8.50
2023-02-02T11:40:25.665Z,8.56
2023-02-02T11:41:25.232Z,8.52
2023-02-02T11:42:25.240Z,8.52
2023-02-02T11:43:25.231Z,8.50
2023-02-02T11:44:25.191Z,8.55
2023-02-02T11:45:25.178Z,8.52
2023-02-02T11:46:25.295Z,8.52
2023-02-02T11:47:25.151Z,8.52
2023-02-02T11:48:25.137Z,8.52
2023-02-02T11:49:25.125Z,8.55
2023-02-02T11:50:25.472Z,8.50
2023-02-02T11:51:25.159Z,8.50
2023-02-02T11:52:25.096Z,8.53
2023-02-02T11:53:25.069Z,8.50
2023-02-02T11:54:25.059Z,8.48
2023-02-02T11:55:25.048Z,8.52
2023-02-02T11:56:25.047Z,8.48
2023-02-02T11:57:25.026Z,8.50
2023-02-02T11:58:25.123Z,8.47
2023-02-02T11:59:25.017Z,8.45
2023-02-02T12:00:25.285Z,8.41
2023-02-02T12:02:25.091Z,8.48
2023-02-02T12:03:24.997Z,8.48
2023-02-02T12:04:24.976Z,8.55
2023-02-02T12:05:24.933Z,8.59
2023-02-02T12:06:24.917Z,8.61
2023-02-02T12:07:24.903Z,8.61
2023-02-02T12:08:24.882Z,8.56
2023-02-02T12:09:24.891Z,8.63
2023-02-02T12:10:25.204Z,8.66
2023-02-02T12:11:24.849Z,8.62
2023-02-02T12:12:24.832Z,8.65
2023-02-02T12:13:24.821Z,8.73
2023-02-02T12:14:24.810Z,8.70
2023-02-02T12:15:24.825Z,8.76
2023-02-02T12:16:24.848Z,8.76
2023-02-02T12:17:24.783Z,8.83
2023-02-02T12:18:24.754Z,8.86
2023-02-02T12:19:24.744Z,8.83
2023-02-02T12:20:25.033Z,8.81
2023-02-02T12:21:24.722Z,8.91
2023-02-02T12:22:24.713Z,8.95
2023-02-02T12:23:24.695Z,8.95
2023-02-02T12:24:24.676Z,8.92
2023-02-02T12:25:25.115Z,8.92
2023-02-02T12:26:24.693Z,8.96
2023-02-02T12:27:24.643Z,8.99
2023-02-02T12:28:24.620Z,8.91
2023-02-02T12:29:24.618Z,8.84
2023-02-02T12:30:25.055Z,8.86
2023-02-02T12:31:24.627Z,8.89
2023-02-02T12:32:24.570Z,8.87
2023-02-02T12:33:24.559Z,8.87
2023-02-02T12:34:24.555Z,8.77
2023-02-02T12:35:24.530Z,8.77
2023-02-02T12:36:24.532Z,8.83
2023-02-02T12:37:24.507Z,8.84
2023-02-02T12:38:24.492Z,8.81
2023-02-02T12:39:24.482Z,8.89
2023-02-02T12:40:24.969Z,8.92
2023-02-02T12:41:24.454Z,8.91
2023-02-02T12:42:24.443Z,8.91
2023-02-02T12:43:24.425Z,8.91
2023-02-02T12:44:24.420Z,8.92
2023-02-02T12:45:24.403Z,8.92
2023-02-02T12:46:24.398Z,8.92
2023-02-02T12:47:24.396Z,8.92
2023-02-02T12:48:24.366Z,8.95
2023-02-02T12:49:24.347Z,9.04
2023-02-02T12:50:24.744Z,8.99
2023-02-02T12:51:24.318Z,9.07
2023-02-02T12:52:24.304Z,9.10
2023-02-02T12:53:24.294Z,9.04
2023-02-02T12:54:33.104Z,9.01
2023-02-02T12:55:24.265Z,9.01
2023-02-02T12:56:24.252Z,9.07
2023-02-02T12:57:24.241Z,9.05
2023-02-02T12:58:24.225Z,9.13
2023-02-02T12:59:24.213Z,9.12
2023-02-02T13:00:24.627Z,9.13
2023-02-02T13:01:24.263Z,9.16
2023-02-02T13:02:24.191Z,9.19
2023-02-02T13:03:24.195Z,9.16
2023-02-02T13:04:24.172Z,9.14
2023-02-02T13:05:24.136Z,9.09
2023-02-02T13:06:24.123Z,9.10
2023-02-02T13:07:24.112Z,9.19
2023-02-02T13:08:24.094Z,9.17
2023-02-02T13:09:24.082Z,9.28
2023-02-02T13:10:24.511Z,9.25
2023-02-02T13:11:24.056Z,9.32
2023-02-02T13:12:24.042Z,9.30
2023-02-02T13:13:24.031Z,9.31
2023-02-02T13:14:24.016Z,9.25
2023-02-02T13:15:24.290Z,9.27
2023-02-02T13:16:23.996Z,9.31
2023-02-02T13:17:24.004Z,9.23
2023-02-02T13:18:23.967Z,9.30
2023-02-02T13:19:23.977Z,9.27
2023-02-02T13:20:24.350Z,9.31
2023-02-02T13:21:23.926Z,9.31
2023-02-02T13:22:23.912Z,9.45